sensor_id;sensor_type;location;lat;lon;timestamp;P1;durP1;ratioP1;P2;durP2;ratioP2
37715;SDS011;23562;50.540;12.504;2023-10-13T00:00:08;26.77;;;14.10;;
37715;SDS011;23562;50.540;12.504;2023-10-13T00:02:50;29.58;;;13.95;;
37715;SDS011;23562;50.540;12.504;2023-10-13T00:05:16;22.30;;;13.57;;
37715;SDS011;23562;50.540;12.504;2023-10-13T00:07:42;29.77;;;14.18;;
37715;SDS011;23562;50.540;12.504;2023-10-13T00:10:07;27.88;;;14.40;;
37715;SDS011;23562;50.540;12.504;2023-10-13T00:12:32;24.58;;;14.63;;
37715;SDS011;23562;50.540;12.504;2023-10-13T00:15:02;22.77;;;14.05;;
37715;SDS011;23562;50.540;12.504;2023-10-13T00:17:29;30.27;;;14.10;;
37715;SDS011;23562;50.540;12.504;2023-10-13T00:19:57;25.55;;;14.02;;
37715;SDS011;23562;50.540;12.504;2023-10-13T00:22:25;27.40;;;13.52;;
37715;SDS011;23562;50.540;12.504;2023-10-13T00:24:52;25.05;;;13.20;;
37715;SDS011;23562;50.540;12.504;2023-10-13T00:27:23;27.73;;;13.88;;
37715;SDS011;23562;50.540;12.504;2023-10-13T00:29:55;22.35;;;14.25;;
37715;SDS011;23562;50.540;12.504;2023-10-13T00:32:41;23.10;;;13.10;;
37715;SDS011;23562;50.540;12.504;2023-10-13T00:35:09;22.88;;;13.15;;
37715;SDS011;23562;50.540;12.504;2023-10-13T00:37:36;29.25;;;13.80;;
37715;SDS011;23562;50.540;12.504;2023-10-13T00:40:08;23.50;;;12.82;;
37715;SDS011;23562;50.540;12.504;2023-10-13T00:42:42;24.27;;;12.52;;
37715;SDS011;23562;50.540;12.504;2023-10-13T00:45:17;20.88;;;12.48;;
37715;SDS011;23562;50.540;12.504;2023-10-13T00:47:43;23.40;;;12.02;;
37715;SDS011;23562;50.540;12.504;2023-10-13T00:50:15;28.77;;;12.90;;
37715;SDS011;23562;50.540;12.504;2023-10-13T00:52:42;19.80;;;11.90;;
37715;SDS011;23562;50.540;12.504;2023-10-13T00:55:11;18.98;;;10.90;;
37715;SDS011;23562;50.540;12.504;2023-10-13T00:57:38;19.83;;;11.18;;
37715;SDS011;23562;50.540;12.504;2023-10-13T01:00:05;20.65;;;10.35;;
37715;SDS011;23562;50.540;12.504;2023-10-13T01:02:43;22.25;;;10.48;;
37715;SDS011;23562;50.540;12.504;2023-10-13T01:05:09;18.33;;;10.98;;
37715;SDS011;23562;50.540;12.504;2023-10-13T01:07:35;20.58;;;11.13;;
37715;SDS011;23562;50.540;12.504;2023-10-13T01:10:02;25.65;;;10.77;;
37715;SDS011;23562;50.540;12.504;2023-10-13T01:12:29;18.65;;;10.48;;
37715;SDS011;23562;50.540;12.504;2023-10-13T01:14:57;17.80;;;10.82;;
37715;SDS011;23562;50.540;12.504;2023-10-13T01:17:22;17.38;;;10.07;;
37715;SDS011;23562;50.540;12.504;2023-10-13T01:19:48;15.48;;;9.43;;
37715;SDS011;23562;50.540;12.504;2023-10-13T01:22:14;18.40;;;9.98;;
37715;SDS011;23562;50.540;12.504;2023-10-13T01:24:39;18.98;;;10.63;;
37715;SDS011;23562;50.540;12.504;2023-10-13T01:27:04;18.30;;;10.43;;
37715;SDS011;23562;50.540;12.504;2023-10-13T01:29:42;24.00;;;9.90;;
37715;SDS011;23562;50.540;12.504;2023-10-13T01:34:37;20.67;;;11.35;;
37715;SDS011;23562;50.540;12.504;2023-10-13T01:37:02;22.42;;;11.55;;
37715;SDS011;23562;50.540;12.504;2023-10-13T01:39:31;22.52;;;12.02;;
37715;SDS011;23562;50.540;12.504;2023-10-13T01:41:56;23.50;;;11.43;;
37715;SDS011;23562;50.540;12.504;2023-10-13T01:44:22;18.42;;;12.02;;
37715;SDS011;23562;50.540;12.504;2023-10-13T01:46:47;26.08;;;12.43;;
37715;SDS011;23562;50.540;12.504;2023-10-13T01:49:13;29.73;;;14.25;;
37715;SDS011;23562;50.540;12.504;2023-10-13T01:51:40;21.35;;;12.48;;
37715;SDS011;23562;50.540;12.504;2023-10-13T01:54:05;23.60;;;13.60;;
37715;SDS011;23562;50.540;12.504;2023-10-13T01:56:36;27.38;;;13.77;;
37715;SDS011;23562;50.540;12.504;2023-10-13T01:59:07;25.95;;;13.45;;
37715;SDS011;23562;50.540;12.504;2023-10-13T02:01:34;27.33;;;12.70;;
37715;SDS011;23562;50.540;12.504;2023-10-13T02:03:59;28.23;;;13.13;;
37715;SDS011;23562;50.540;12.504;2023-10-13T02:06:31;25.83;;;13.07;;
37715;SDS011;23562;50.540;12.504;2023-10-13T02:08:58;29.08;;;12.63;;
37715;SDS011;23562;50.540;12.504;2023-10-13T02:11:28;25.95;;;14.25;;
37715;SDS011;23562;50.540;12.504;2023-10-13T02:13:54;23.52;;;12.43;;
37715;SDS011;23562;50.540;12.504;2023-10-13T02:16:22;24.23;;;12.05;;
37715;SDS011;23562;50.540;12.504;2023-10-13T02:18:47;25.02;;;13.18;;
37715;SDS011;23562;50.540;12.504;2023-10-13T02:21:16;23.67;;;11.63;;
37715;SDS011;23562;50.540;12.504;2023-10-13T02:23:41;22.80;;;11.97;;
37715;SDS011;23562;50.540;12.504;2023-10-13T02:26:24;22.13;;;11.45;;
37715;SDS011;23562;50.540;12.504;2023-10-13T02:28:56;18.50;;;11.43;;
37715;SDS011;23562;50.540;12.504;2023-10-13T02:31:22;19.42;;;11.05;;
37715;SDS011;23562;50.540;12.504;2023-10-13T02:33:49;18.40;;;11.23;;
37715;SDS011;23562;50.540;12.504;2023-10-13T02:36:14;25.38;;;10.93;;
37715;SDS011;23562;50.540;12.504;2023-10-13T02:38:47;18.35;;;11.52;;
37715;SDS011;23562;50.540;12.504;2023-10-13T02:41:13;22.45;;;11.48;;
37715;SDS011;23562;50.540;12.504;2023-10-13T02:43:44;22.98;;;12.35;;
37715;SDS011;23562;50.540;12.504;2023-10-13T02:46:10;20.63;;;11.03;;
37715;SDS011;23562;50.540;12.504;2023-10-13T02:48:35;20.02;;;11.35;;
37715;SDS011;23562;50.540;12.504;2023-10-13T02:51:07;20.83;;;11.63;;
37715;SDS011;23562;50.540;12.504;2023-10-13T02:53:43;18.42;;;10.70;;
37715;SDS011;23562;50.540;12.504;2023-10-13T02:56:11;18.50;;;11.30;;
37715;SDS011;23562;50.540;12.504;2023-10-13T02:58:43;19.48;;;11.35;;
37715;SDS011;23562;50.540;12.504;2023-10-13T03:01:10;19.70;;;11.80;;
37715;SDS011;23562;50.540;12.504;2023-10-13T03:03:45;19.65;;;11.90;;
37715;SDS011;23562;50.540;12.504;2023-10-13T03:06:14;22.17;;;12.68;;
37715;SDS011;23562;50.540;12.504;2023-10-13T03:08:40;21.10;;;12.27;;
37715;SDS011;23562;50.540;12.504;2023-10-13T03:11:05;23.15;;;11.43;;
37715;SDS011;23562;50.540;12.504;2023-10-13T03:13:31;19.85;;;12.50;;
37715;SDS011;23562;50.540;12.504;2023-10-13T03:15:58;20.05;;;12.43;;
37715;SDS011;23562;50.540;12.504;2023-10-13T03:18:23;20.45;;;11.35;;
37715;SDS011;23562;50.540;12.504;2023-10-13T03:20:49;19.45;;;11.88;;
37715;SDS011;23562;50.540;12.504;2023-10-13T03:23:21;21.65;;;12.70;;
37715;SDS011;23562;50.540;12.504;2023-10-13T03:25:46;16.77;;;11.13;;
37715;SDS011;23562;50.540;12.504;2023-10-13T03:28:14;20.08;;;11.52;;
37715;SDS011;23562;50.540;12.504;2023-10-13T03:30:42;18.27;;;11.52;;
37715;SDS011;23562;50.540;12.504;2023-10-13T03:33:08;21.65;;;11.98;;
37715;SDS011;23562;50.540;12.504;2023-10-13T03:35:37;17.40;;;11.07;;
37715;SDS011;23562;50.540;12.504;2023-10-13T03:38:27;14.77;;;10.57;;
37715;SDS011;23562;50.540;12.504;2023-10-13T03:40:52;18.55;;;11.57;;
37715;SDS011;23562;50.540;12.504;2023-10-13T03:43:37;18.95;;;11.63;;
37715;SDS011;23562;50.540;12.504;2023-10-13T03:46:14;18.45;;;10.25;;
37715;SDS011;23562;50.540;12.504;2023-10-13T03:48:40;15.68;;;9.95;;
37715;SDS011;23562;50.540;12.504;2023-10-13T03:51:19;14.13;;;9.93;;
37715;SDS011;23562;50.540;12.504;2023-10-13T03:53:44;15.65;;;10.38;;
37715;SDS011;23562;50.540;12.504;2023-10-13T03:56:20;16.00;;;9.77;;
37715;SDS011;23562;50.540;12.504;2023-10-13T03:59:03;16.52;;;9.52;;
37715;SDS011;23562;50.540;12.504;2023-10-13T04:01:58;15.27;;;9.60;;
37715;SDS011;23562;50.540;12.504;2023-10-13T04:05:04;16.20;;;9.13;;
37715;SDS011;23562;50.540;12.504;2023-10-13T04:08:01;16.35;;;9.70;;
37715;SDS011;23562;50.540;12.504;2023-10-13T04:10:48;11.90;;;8.40;;
37715;SDS011;23562;50.540;12.504;2023-10-13T04:13:57;13.18;;;8.23;;
37715;SDS011;23562;50.540;12.504;2023-10-13T04:17:05;13.32;;;8.25;;
37715;SDS011;23562;50.540;12.504;2023-10-13T04:20:00;14.02;;;8.68;;
37715;SDS011;23562;50.540;12.504;2023-10-13T04:22:31;10.88;;;7.72;;
37715;SDS011;23562;50.540;12.504;2023-10-13T04:25:12;12.90;;;8.13;;
37715;SDS011;23562;50.540;12.504;2023-10-13T04:28:18;16.15;;;8.50;;
37715;SDS011;23562;50.540;12.504;2023-10-13T04:31:30;11.93;;;7.55;;
37715;SDS011;23562;50.540;12.504;2023-10-13T04:34:31;11.68;;;8.15;;
37715;SDS011;23562;50.540;12.504;2023-10-13T04:37:04;13.60;;;8.82;;
37715;SDS011;23562;50.540;12.504;2023-10-13T04:40:02;15.85;;;8.48;;
37715;SDS011;23562;50.540;12.504;2023-10-13T04:42:57;16.40;;;8.73;;
37715;SDS011;23562;50.540;12.504;2023-10-13T04:45:35;12.52;;;7.60;;
37715;SDS011;23562;50.540;12.504;2023-10-13T04:48:39;16.52;;;9.02;;
37715;SDS011;23562;50.540;12.504;2023-10-13T04:51:04;17.30;;;10.43;;
37715;SDS011;23562;50.540;12.504;2023-10-13T04:54:26;17.83;;;10.65;;
37715;SDS011;23562;50.540;12.504;2023-10-13T05:03:20;25.55;;;14.80;;
37715;SDS011;23562;50.540;12.504;2023-10-13T05:06:26;30.00;;;22.27;;
37715;SDS011;23562;50.540;12.504;2023-10-13T05:09:15;18.13;;;11.00;;
37715;SDS011;23562;50.540;12.504;2023-10-13T05:12:07;14.05;;;8.45;;
37715;SDS011;23562;50.540;12.504;2023-10-13T05:15:23;12.57;;;8.98;;
37715;SDS011;23562;50.540;12.504;2023-10-13T05:18:28;20.00;;;11.93;;
37715;SDS011;23562;50.540;12.504;2023-10-13T05:24:47;15.35;;;8.85;;
37715;SDS011;23562;50.540;12.504;2023-10-13T05:27:51;17.88;;;9.18;;
37715;SDS011;23562;50.540;12.504;2023-10-13T05:30:35;11.50;;;8.10;;
37715;SDS011;23562;50.540;12.504;2023-10-13T05:36:16;15.68;;;9.70;;
37715;SDS011;23562;50.540;12.504;2023-10-13T05:39:23;13.68;;;8.50;;
37715;SDS011;23562;50.540;12.504;2023-10-13T05:42:35;16.63;;;8.45;;
37715;SDS011;23562;50.540;12.504;2023-10-13T05:45:28;20.42;;;8.50;;
37715;SDS011;23562;50.540;12.504;2023-10-13T05:48:45;13.63;;;7.80;;
37715;SDS011;23562;50.540;12.504;2023-10-13T05:51:46;13.70;;;7.95;;
37715;SDS011;23562;50.540;12.504;2023-10-13T05:54:17;19.52;;;8.18;;
37715;SDS011;23562;50.540;12.504;2023-10-13T05:57:04;11.77;;;7.32;;
37715;SDS011;23562;50.540;12.504;2023-10-13T06:00:11;13.90;;;6.97;;
37715;SDS011;23562;50.540;12.504;2023-10-13T06:03:21;15.60;;;7.45;;
37715;SDS011;23562;50.540;12.504;2023-10-13T06:06:25;9.65;;;6.57;;
37715;SDS011;23562;50.540;12.504;2023-10-13T06:09:10;11.27;;;7.47;;
37715;SDS011;23562;50.540;12.504;2023-10-13T06:11:55;14.65;;;7.70;;
37715;SDS011;23562;50.540;12.504;2023-10-13T06:14:45;13.77;;;7.07;;
37715;SDS011;23562;50.540;12.504;2023-10-13T06:17:29;13.32;;;8.05;;
37715;SDS011;23562;50.540;12.504;2023-10-13T06:20:13;14.88;;;7.97;;
37715;SDS011;23562;50.540;12.504;2023-10-13T06:22:57;11.60;;;6.70;;
37715;SDS011;23562;50.540;12.504;2023-10-13T06:25:53;14.27;;;7.53;;
37715;SDS011;23562;50.540;12.504;2023-10-13T06:28:37;11.10;;;6.43;;
37715;SDS011;23562;50.540;12.504;2023-10-13T06:31:36;11.60;;;6.40;;
37715;SDS011;23562;50.540;12.504;2023-10-13T06:34:11;13.23;;;6.07;;
37715;SDS011;23562;50.540;12.504;2023-10-13T06:36:52;11.27;;;6.68;;
37715;SDS011;23562;50.540;12.504;2023-10-13T06:40:08;13.73;;;6.80;;
37715;SDS011;23562;50.540;12.504;2023-10-13T06:49:05;10.15;;;6.07;;
37715;SDS011;23562;50.540;12.504;2023-10-13T06:51:34;11.27;;;7.22;;
37715;SDS011;23562;50.540;12.504;2023-10-13T06:54:19;12.10;;;6.97;;
37715;SDS011;23562;50.540;12.504;2023-10-13T06:56:46;13.70;;;6.50;;
37715;SDS011;23562;50.540;12.504;2023-10-13T06:59:13;14.23;;;6.80;;
37715;SDS011;23562;50.540;12.504;2023-10-13T07:01:43;15.65;;;7.03;;
37715;SDS011;23562;50.540;12.504;2023-10-13T07:04:13;13.02;;;7.13;;
37715;SDS011;23562;50.540;12.504;2023-10-13T07:06:47;10.88;;;7.13;;
37715;SDS011;23562;50.540;12.504;2023-10-13T07:09:29;15.50;;;7.53;;
37715;SDS011;23562;50.540;12.504;2023-10-13T07:12:04;12.05;;;8.35;;
37715;SDS011;23562;50.540;12.504;2023-10-13T07:14:32;13.00;;;7.40;;
37715;SDS011;23562;50.540;12.504;2023-10-13T07:17:03;13.95;;;7.82;;
37715;SDS011;23562;50.540;12.504;2023-10-13T07:19:30;14.32;;;7.63;;
37715;SDS011;23562;50.540;12.504;2023-10-13T07:21:58;17.10;;;7.78;;
37715;SDS011;23562;50.540;12.504;2023-10-13T07:24:27;13.38;;;7.70;;
37715;SDS011;23562;50.540;12.504;2023-10-13T07:27:04;11.57;;;7.07;;
37715;SDS011;23562;50.540;12.504;2023-10-13T07:29:31;22.08;;;8.27;;
37715;SDS011;23562;50.540;12.504;2023-10-13T07:32:04;12.68;;;7.30;;
37715;SDS011;23562;50.540;12.504;2023-10-13T07:37:46;14.93;;;7.55;;
37715;SDS011;23562;50.540;12.504;2023-10-13T07:40:14;14.45;;;6.65;;
37715;SDS011;23562;50.540;12.504;2023-10-13T07:45:36;11.55;;;6.85;;
37715;SDS011;23562;50.540;12.504;2023-10-13T07:48:09;22.45;;;6.97;;
37715;SDS011;23562;50.540;12.504;2023-10-13T07:50:58;14.30;;;7.03;;
37715;SDS011;23562;50.540;12.504;2023-10-13T07:53:49;11.20;;;6.70;;
37715;SDS011;23562;50.540;12.504;2023-10-13T07:56:14;11.88;;;6.57;;
37715;SDS011;23562;50.540;12.504;2023-10-13T07:58:43;11.18;;;6.70;;
37715;SDS011;23562;50.540;12.504;2023-10-13T08:01:22;12.90;;;6.47;;
37715;SDS011;23562;50.540;12.504;2023-10-13T08:03:49;17.08;;;6.78;;
37715;SDS011;23562;50.540;12.504;2023-10-13T08:06:29;15.18;;;7.25;;
37715;SDS011;23562;50.540;12.504;2023-10-13T08:09:02;16.17;;;6.57;;
37715;SDS011;23562;50.540;12.504;2023-10-13T08:11:37;12.73;;;6.75;;
37715;SDS011;23562;50.540;12.504;2023-10-13T08:14:06;17.13;;;7.20;;
37715;SDS011;23562;50.540;12.504;2023-10-13T08:16:53;11.25;;;7.00;;
37715;SDS011;23562;50.540;12.504;2023-10-13T08:19:25;15.82;;;7.38;;
37715;SDS011;23562;50.540;12.504;2023-10-13T08:22:17;15.43;;;7.03;;
37715;SDS011;23562;50.540;12.504;2023-10-13T08:24:42;17.02;;;7.28;;
37715;SDS011;23562;50.540;12.504;2023-10-13T08:27:08;16.57;;;7.43;;
37715;SDS011;23562;50.540;12.504;2023-10-13T08:29:59;19.50;;;7.35;;
37715;SDS011;23562;50.540;12.504;2023-10-13T08:32:42;22.42;;;8.00;;
37715;SDS011;23562;50.540;12.504;2023-10-13T08:35:19;15.02;;;7.25;;
37715;SDS011;23562;50.540;12.504;2023-10-13T08:37:58;13.88;;;7.05;;
37715;SDS011;23562;50.540;12.504;2023-10-13T08:40:24;18.60;;;7.77;;
37715;SDS011;23562;50.540;12.504;2023-10-13T08:43:12;14.13;;;7.10;;
37715;SDS011;23562;50.540;12.504;2023-10-13T08:45:50;19.13;;;7.63;;
37715;SDS011;23562;50.540;12.504;2023-10-13T08:55:07;17.98;;;6.60;;
37715;SDS011;23562;50.540;12.504;2023-10-13T08:58:13;12.52;;;7.05;;
37715;SDS011;23562;50.540;12.504;2023-10-13T09:00:40;17.77;;;8.40;;
37715;SDS011;23562;50.540;12.504;2023-10-13T09:09:49;18.58;;;7.20;;
37715;SDS011;23562;50.540;12.504;2023-10-13T09:13:03;24.58;;;7.45;;
37715;SDS011;23562;50.540;12.504;2023-10-13T09:15:38;13.38;;;6.45;;
37715;SDS011;23562;50.540;12.504;2023-10-13T09:18:43;15.63;;;6.32;;
37715;SDS011;23562;50.540;12.504;2023-10-13T09:21:15;12.85;;;5.90;;
37715;SDS011;23562;50.540;12.504;2023-10-13T09:30:20;17.92;;;6.65;;
37715;SDS011;23562;50.540;12.504;2023-10-13T09:33:11;16.45;;;6.10;;
37715;SDS011;23562;50.540;12.504;2023-10-13T09:35:56;16.73;;;6.22;;
37715;SDS011;23562;50.540;12.504;2023-10-13T09:38:24;15.05;;;6.63;;
37715;SDS011;23562;50.540;12.504;2023-10-13T09:44:37;16.38;;;6.72;;
37715;SDS011;23562;50.540;12.504;2023-10-13T09:47:51;20.48;;;6.47;;
37715;SDS011;23562;50.540;12.504;2023-10-13T09:50:53;20.33;;;6.50;;
37715;SDS011;23562;50.540;12.504;2023-10-13T09:53:47;16.38;;;6.38;;
37715;SDS011;23562;50.540;12.504;2023-10-13T09:56:37;11.43;;;6.13;;
37715;SDS011;23562;50.540;12.504;2023-10-13T10:02:22;23.45;;;6.63;;
37715;SDS011;23562;50.540;12.504;2023-10-13T10:04:56;18.50;;;6.47;;
37715;SDS011;23562;50.540;12.504;2023-10-13T10:07:57;15.25;;;6.18;;
37715;SDS011;23562;50.540;12.504;2023-10-13T10:16:06;16.58;;;6.82;;
37715;SDS011;23562;50.540;12.504;2023-10-13T10:19:07;14.48;;;5.97;;
37715;SDS011;23562;50.540;12.504;2023-10-13T10:24:44;13.00;;;6.82;;
37715;SDS011;23562;50.540;12.504;2023-10-13T10:27:10;16.17;;;6.17;;
37715;SDS011;23562;50.540;12.504;2023-10-13T10:32:46;20.30;;;6.45;;
37715;SDS011;23562;50.540;12.504;2023-10-13T10:38:30;13.10;;;5.90;;
37715;SDS011;23562;50.540;12.504;2023-10-13T10:41:00;16.85;;;6.15;;
37715;SDS011;23562;50.540;12.504;2023-10-13T10:43:48;16.00;;;5.88;;
37715;SDS011;23562;50.540;12.504;2023-10-13T10:46:53;17.85;;;5.68;;
37715;SDS011;23562;50.540;12.504;2023-10-13T10:49:41;16.20;;;6.43;;
37715;SDS011;23562;50.540;12.504;2023-10-13T10:56:12;15.23;;;5.90;;
37715;SDS011;23562;50.540;12.504;2023-10-13T11:01:42;15.18;;;5.80;;
37715;SDS011;23562;50.540;12.504;2023-10-13T11:10:28;16.95;;;6.07;;
37715;SDS011;23562;50.540;12.504;2023-10-13T11:16:36;19.88;;;5.78;;
37715;SDS011;23562;50.540;12.504;2023-10-13T11:19:55;13.75;;;5.57;;
37715;SDS011;23562;50.540;12.504;2023-10-13T11:23:24;13.77;;;6.15;;
37715;SDS011;23562;50.540;12.504;2023-10-13T11:26:16;16.15;;;5.32;;
37715;SDS011;23562;50.540;12.504;2023-10-13T11:28:49;16.63;;;5.60;;
37715;SDS011;23562;50.540;12.504;2023-10-13T11:31:35;13.05;;;5.70;;
37715;SDS011;23562;50.540;12.504;2023-10-13T11:34:09;15.18;;;5.95;;
37715;SDS011;23562;50.540;12.504;2023-10-13T11:36:35;15.02;;;5.82;;
37715;SDS011;23562;50.540;12.504;2023-10-13T11:39:02;16.33;;;5.80;;
37715;SDS011;23562;50.540;12.504;2023-10-13T11:41:27;14.30;;;6.60;;
37715;SDS011;23562;50.540;12.504;2023-10-13T11:43:59;12.63;;;5.55;;
37715;SDS011;23562;50.540;12.504;2023-10-13T11:46:43;13.02;;;5.55;;
37715;SDS011;23562;50.540;12.504;2023-10-13T11:49:16;11.10;;;5.75;;
37715;SDS011;23562;50.540;12.504;2023-10-13T11:51:53;12.07;;;6.50;;
37715;SDS011;23562;50.540;12.504;2023-10-13T11:54:38;13.90;;;5.57;;
37715;SDS011;23562;50.540;12.504;2023-10-13T11:57:09;11.90;;;5.65;;
37715;SDS011;23562;50.540;12.504;2023-10-13T11:59:54;11.75;;;6.05;;
37715;SDS011;23562;50.540;12.504;2023-10-13T12:02:21;16.02;;;5.57;;
37715;SDS011;23562;50.540;12.504;2023-10-13T12:04:52;14.63;;;5.88;;
37715;SDS011;23562;50.540;12.504;2023-10-13T12:07:25;13.65;;;6.10;;
37715;SDS011;23562;50.540;12.504;2023-10-13T12:10:16;10.65;;;6.00;;
37715;SDS011;23562;50.540;12.504;2023-10-13T12:13:03;15.63;;;5.60;;
37715;SDS011;23562;50.540;12.504;2023-10-13T12:15:44;11.80;;;6.07;;
37715;SDS011;23562;50.540;12.504;2023-10-13T12:18:17;13.07;;;6.30;;
37715;SDS011;23562;50.540;12.504;2023-10-13T12:20:50;11.90;;;6.18;;
37715;SDS011;23562;50.540;12.504;2023-10-13T12:23:24;14.38;;;5.53;;
37715;SDS011;23562;50.540;12.504;2023-10-13T12:25:56;12.18;;;5.80;;
37715;SDS011;23562;50.540;12.504;2023-10-13T12:28:44;15.93;;;5.60;;
37715;SDS011;23562;50.540;12.504;2023-10-13T12:31:23;10.03;;;5.73;;
37715;SDS011;23562;50.540;12.504;2023-10-13T12:33:52;10.13;;;5.70;;
37715;SDS011;23562;50.540;12.504;2023-10-13T12:36:18;12.25;;;5.90;;
37715;SDS011;23562;50.540;12.504;2023-10-13T12:38:46;9.88;;;5.90;;
37715;SDS011;23562;50.540;12.504;2023-10-13T12:41:18;12.37;;;5.60;;
37715;SDS011;23562;50.540;12.504;2023-10-13T12:44:10;11.77;;;5.55;;
37715;SDS011;23562;50.540;12.504;2023-10-13T12:47:04;12.85;;;5.22;;
37715;SDS011;23562;50.540;12.504;2023-10-13T12:49:47;13.95;;;5.50;;
37715;SDS011;23562;50.540;12.504;2023-10-13T12:52:13;9.00;;;5.37;;
37715;SDS011;23562;50.540;12.504;2023-10-13T12:54:44;12.43;;;5.40;;
37715;SDS011;23562;50.540;12.504;2023-10-13T12:57:27;15.68;;;5.72;;
37715;SDS011;23562;50.540;12.504;2023-10-13T12:59:52;13.77;;;5.00;;
37715;SDS011;23562;50.540;12.504;2023-10-13T13:02:19;13.00;;;5.80;;
37715;SDS011;23562;50.540;12.504;2023-10-13T13:04:45;14.13;;;5.57;;
37715;SDS011;23562;50.540;12.504;2023-10-13T13:07:12;12.25;;;5.45;;
37715;SDS011;23562;50.540;12.504;2023-10-13T13:09:39;14.57;;;5.65;;
37715;SDS011;23562;50.540;12.504;2023-10-13T13:12:04;8.98;;;4.82;;
37715;SDS011;23562;50.540;12.504;2023-10-13T13:14:31;13.93;;;5.22;;
37715;SDS011;23562;50.540;12.504;2023-10-13T13:16:59;8.65;;;5.25;;
37715;SDS011;23562;50.540;12.504;2023-10-13T13:19:33;14.00;;;5.88;;
37715;SDS011;23562;50.540;12.504;2023-10-13T13:22:04;12.05;;;5.40;;
37715;SDS011;23562;50.540;12.504;2023-10-13T13:24:29;12.20;;;5.25;;
37715;SDS011;23562;50.540;12.504;2023-10-13T13:26:57;13.52;;;4.85;;
37715;SDS011;23562;50.540;12.504;2023-10-13T13:29:28;12.77;;;5.55;;
37715;SDS011;23562;50.540;12.504;2023-10-13T13:31:54;12.77;;;5.30;;
37715;SDS011;23562;50.540;12.504;2023-10-13T13:34:20;9.95;;;5.18;;
37715;SDS011;23562;50.540;12.504;2023-10-13T13:36:46;11.63;;;5.10;;
37715;SDS011;23562;50.540;12.504;2023-10-13T13:39:17;8.07;;;5.07;;
37715;SDS011;23562;50.540;12.504;2023-10-13T13:41:52;8.85;;;5.43;;
37715;SDS011;23562;50.540;12.504;2023-10-13T13:44:23;16.00;;;6.07;;
37715;SDS011;23562;50.540;12.504;2023-10-13T13:46:54;13.35;;;5.38;;
37715;SDS011;23562;50.540;12.504;2023-10-13T13:49:21;9.35;;;5.35;;
37715;SDS011;23562;50.540;12.504;2023-10-13T13:51:53;9.70;;;4.78;;
37715;SDS011;23562;50.540;12.504;2023-10-13T13:54:19;14.87;;;5.70;;
37715;SDS011;23562;50.540;12.504;2023-10-13T13:56:44;10.30;;;5.15;;
37715;SDS011;23562;50.540;12.504;2023-10-13T13:59:09;13.37;;;5.33;;
37715;SDS011;23562;50.540;12.504;2023-10-13T14:01:35;12.50;;;5.20;;
37715;SDS011;23562;50.540;12.504;2023-10-13T14:04:02;10.73;;;5.10;;
37715;SDS011;23562;50.540;12.504;2023-10-13T14:06:28;10.02;;;4.93;;
37715;SDS011;23562;50.540;12.504;2023-10-13T14:08:54;12.05;;;5.25;;
37715;SDS011;23562;50.540;12.504;2023-10-13T14:11:25;14.85;;;5.25;;
37715;SDS011;23562;50.540;12.504;2023-10-13T14:14:12;12.43;;;4.60;;
37715;SDS011;23562;50.540;12.504;2023-10-13T14:16:41;15.63;;;5.30;;
37715;SDS011;23562;50.540;12.504;2023-10-13T14:19:19;12.15;;;5.03;;
37715;SDS011;23562;50.540;12.504;2023-10-13T14:21:54;10.98;;;4.97;;
37715;SDS011;23562;50.540;12.504;2023-10-13T14:24:19;12.18;;;4.68;;
37715;SDS011;23562;50.540;12.504;2023-10-13T14:26:52;13.70;;;5.45;;
37715;SDS011;23562;50.540;12.504;2023-10-13T14:29:17;14.80;;;5.13;;
37715;SDS011;23562;50.540;12.504;2023-10-13T14:31:43;11.03;;;4.83;;
37715;SDS011;23562;50.540;12.504;2023-10-13T14:34:08;12.38;;;4.78;;
37715;SDS011;23562;50.540;12.504;2023-10-13T14:36:34;9.02;;;4.63;;
37715;SDS011;23562;50.540;12.504;2023-10-13T14:39:02;9.80;;;4.95;;
37715;SDS011;23562;50.540;12.504;2023-10-13T14:41:34;9.35;;;4.43;;
37715;SDS011;23562;50.540;12.504;2023-10-13T14:43:59;9.35;;;4.78;;
37715;SDS011;23562;50.540;12.504;2023-10-13T14:46:30;11.45;;;5.28;;
37715;SDS011;23562;50.540;12.504;2023-10-13T14:48:55;14.93;;;4.93;;
37715;SDS011;23562;50.540;12.504;2023-10-13T14:51:20;8.48;;;4.63;;
37715;SDS011;23562;50.540;12.504;2023-10-13T14:53:46;9.53;;;5.00;;
37715;SDS011;23562;50.540;12.504;2023-10-13T14:56:15;14.52;;;5.45;;
37715;SDS011;23562;50.540;12.504;2023-10-13T14:58:40;12.63;;;5.13;;
37715;SDS011;23562;50.540;12.504;2023-10-13T15:01:13;9.13;;;4.97;;
37715;SDS011;23562;50.540;12.504;2023-10-13T15:03:41;14.98;;;4.82;;
37715;SDS011;23562;50.540;12.504;2023-10-13T15:06:06;10.93;;;5.03;;
37715;SDS011;23562;50.540;12.504;2023-10-13T15:08:31;15.02;;;5.55;;
37715;SDS011;23562;50.540;12.504;2023-10-13T15:10:56;12.18;;;4.78;;
37715;SDS011;23562;50.540;12.504;2023-10-13T15:13:24;11.82;;;5.45;;
37715;SDS011;23562;50.540;12.504;2023-10-13T15:15:49;11.88;;;5.22;;
37715;SDS011;23562;50.540;12.504;2023-10-13T15:18:14;9.97;;;5.40;;
37715;SDS011;23562;50.540;12.504;2023-10-13T15:20:39;8.47;;;5.10;;
37715;SDS011;23562;50.540;12.504;2023-10-13T15:23:08;11.00;;;4.93;;
37715;SDS011;23562;50.540;12.504;2023-10-13T15:25:40;10.82;;;4.88;;
37715;SDS011;23562;50.540;12.504;2023-10-13T15:28:14;8.00;;;4.90;;
37715;SDS011;23562;50.540;12.504;2023-10-13T15:30:39;9.40;;;5.03;;
37715;SDS011;23562;50.540;12.504;2023-10-13T15:33:10;13.95;;;4.47;;
37715;SDS011;23562;50.540;12.504;2023-10-13T15:35:37;13.05;;;5.00;;
37715;SDS011;23562;50.540;12.504;2023-10-13T15:38:04;13.90;;;4.90;;
37715;SDS011;23562;50.540;12.504;2023-10-13T15:40:31;11.45;;;5.15;;
37715;SDS011;23562;50.540;12.504;2023-10-13T15:42:56;9.13;;;4.40;;
37715;SDS011;23562;50.540;12.504;2023-10-13T15:45:24;12.18;;;5.22;;
37715;SDS011;23562;50.540;12.504;2023-10-13T15:47:49;11.10;;;4.53;;
37715;SDS011;23562;50.540;12.504;2023-10-13T15:50:15;11.85;;;4.65;;
37715;SDS011;23562;50.540;12.504;2023-10-13T15:52:41;10.90;;;4.50;;
37715;SDS011;23562;50.540;12.504;2023-10-13T15:55:10;9.10;;;4.78;;
37715;SDS011;23562;50.540;12.504;2023-10-13T15:57:38;10.25;;;5.50;;
37715;SDS011;23562;50.540;12.504;2023-10-13T16:00:10;11.65;;;4.82;;
37715;SDS011;23562;50.540;12.504;2023-10-13T16:02:51;14.75;;;5.00;;
37715;SDS011;23562;50.540;12.504;2023-10-13T16:05:17;11.80;;;4.90;;
37715;SDS011;23562;50.540;12.504;2023-10-13T16:07:42;11.93;;;5.47;;
37715;SDS011;23562;50.540;12.504;2023-10-13T16:10:08;8.30;;;4.47;;
37715;SDS011;23562;50.540;12.504;2023-10-13T16:12:37;11.23;;;4.68;;
37715;SDS011;23562;50.540;12.504;2023-10-13T16:15:04;14.88;;;5.45;;
37715;SDS011;23562;50.540;12.504;2023-10-13T16:17:33;10.75;;;4.85;;
37715;SDS011;23562;50.540;12.504;2023-10-13T16:19:58;15.47;;;5.07;;
37715;SDS011;23562;50.540;12.504;2023-10-13T16:22:23;10.93;;;4.97;;
37715;SDS011;23562;50.540;12.504;2023-10-13T16:24:48;12.00;;;5.40;;
37715;SDS011;23562;50.540;12.504;2023-10-13T16:27:13;12.02;;;5.13;;
37715;SDS011;23562;50.540;12.504;2023-10-13T16:29:39;12.40;;;5.20;;
37715;SDS011;23562;50.540;12.504;2023-10-13T16:32:07;10.43;;;5.15;;